TimeCST,TemperatureF,Dew PointF,Humidity,Sea Level PressureIn,VisibilityMPH,Wind Direction,Wind SpeedMPH,Gust SpeedMPH,PrecipitationIn,Events,Conditions,WindDirDegrees,DateUTC
12:52 AM,28.9,24.1,82,30.08,10.0,SW,4.6,-,N/A,,Clear,230,2011-11-11 06:52:00
1:52 AM,28.0,23.0,81,30.07,10.0,SW,3.5,-,N/A,,Clear,230,2011-11-11 07:52:00
2:52 AM,28.4,23.0,80,30.04,10.0,WSW,3.5,-,N/A,,Clear,240,2011-11-11 08:52:00
3:52 AM,28.9,24.1,82,30.04,10.0,Calm,Calm,-,N/A,,Clear,0,2011-11-11 09:52:00
4:52 AM,28.9,24.1,82,30.02,10.0,Calm,Calm,-,N/A,,Mostly Cloudy,0,2011-11-11 10:52:00
5:52 AM,28.4,23.0,80,29.99,10.0,Calm,Calm,-,N/A,,Partly Cloudy,0,2011-11-11 11:52:00
6:52 AM,28.9,23.0,78,30.00,10.0,Calm,Calm,-,N/A,,Clear,0,2011-11-11 12:52:00
7:52 AM,30.0,24.1,79,29.99,10.0,South,4.6,-,N/A,,Clear,170,2011-11-11 13:52:00
8:52 AM,34.0,25.0,70,29.98,10.0,SSE,5.8,-,N/A,,Clear,160,2011-11-11 14:52:00
9:52 AM,39.0,25.0,57,29.95,10.0,South,9.2,-,N/A,,Clear,170,2011-11-11 15:52:00
10:52 AM,41.0,24.1,51,29.92,10.0,SSE,8.1,18.4,N/A,,Clear,160,2011-11-11 16:52:00
11:52 AM,46.0,26.1,46,29.86,10.0,SSE,18.4,24.2,N/A,,Clear,160,2011-11-11 17:52:00
12:52 PM,48.2,28.4,46,29.78,10.0,SSE,13.8,-,N/A,,Clear,160,2011-11-11 18:52:00
1:52 PM,50.0,30.0,46,29.76,10.0,South,12.7,19.6,N/A,,Clear,170,2011-11-11 19:52:00
2:52 PM,51.1,30.9,46,29.77,10.0,South,8.1,18.4,N/A,,Clear,190,2011-11-11 20:52:00
3:52 PM,50.0,32.0,50,29.77,10.0,SW,8.1,-,N/A,,Clear,220,2011-11-11 21:52:00
4:52 PM,46.0,33.1,61,29.77,10.0,South,4.6,-,N/A,,Clear,170,2011-11-11 22:52:00
5:52 PM,37.0,32.0,82,29.76,10.0,South,3.5,-,N/A,,Clear,170,2011-11-11 23:52:00
6:52 PM,37.0,30.9,79,29.76,9.0,Calm,Calm,-,N/A,,Clear,0,2011-11-12 00:52:00
7:52 PM,39.9,32.0,73,29.76,10.0,Calm,Calm,-,N/A,,Clear,0,2011-11-12 01:52:00
8:52 PM,39.9,32.0,73,29.75,10.0,Calm,Calm,-,N/A,,Clear,0,2011-11-12 02:52:00
9:52 PM,43.0,33.1,68,29.76,10.0,West,4.6,-,N/A,,Clear,260,2011-11-12 03:52:00
10:52 PM,43.0,33.1,68,29.76,10.0,WSW,4.6,-,N/A,,Clear,240,2011-11-12 04:52:00
11:52 PM,41.0,33.1,73,29.75,10.0,WSW,6.9,-,N/A,,Clear,250,2011-11-12 05:52:00